Time;durP1;ratioP1;P1;durP2;ratioP2;P2;SDS_P1;SDS_P2;PMS_P1;PMS_P2;Temp;Humidity;BMP_temperature;BMP_pressure;BME280_temperature;BME280_humidity;BME280_pressure;Samples;Min_cycle;Max_cycle;Signal;HPM_P1;HPM_P2
2022/01/24 00:00:35;;;;;;;11.77;6.25;;;;;;;;;;5033760;28;20029;-67
2022/01/24 00:03:01;;;;;;;12.60;5.53;;;;;;;;;;5033587;28;20500;-67
2022/01/24 00:05:27;;;;;;;11.38;5.93;;;;;;;;;;5032156;28;20119;-67
2022/01/24 00:07:53;;;;;;;11.48;5.60;;;;;;;;;;5033023;28;20038;-67
2022/01/24 00:10:23;;;;;;;9.95;5.60;;;;;;;;;;5035392;28;20021;-67
2022/01/24 00:26:40;;;;;;;11.48;5.28;;;;;;;;;;5039407;28;20022;-67
2022/01/24 00:27:01;;;;;;;11.00;6.00;;;;;;;;;;5044650;28;20079;-67
2022/01/24 00:29:27;;;;;;;14.27;5.95;;;;;;;;;;5044633;28;20566;-67
2022/01/24 00:31:54;;;;;;;16.10;6.55;;;;;;;;;;5039909;28;20033;-67
2022/01/24 00:34:23;;;;;;;15.57;6.80;;;;;;;;;;5034876;28;20018;-68
2022/01/24 00:36:49;;;;;;;11.70;5.88;;;;;;;;;;5033101;28;20490;-67
2022/01/24 00:39:15;;;;;;;10.70;5.30;;;;;;;;;;5032466;28;20021;-67
2022/01/24 00:42:01;;;;;;;10.15;5.93;;;;;;;;;;5033092;28;20124;-68
2022/01/24 00:47:49;;;;;;;9.57;5.20;;;;;;;;;;5028367;28;20177;-67
2022/01/24 00:55:18;;;;;;;8.27;4.18;;;;;;;;;;5034780;28;20087;-67
2022/01/24 00:57:44;;;;;;;9.85;4.75;;;;;;;;;;5032467;28;20090;-67
2022/01/24 01:00:10;;;;;;;12.05;5.82;;;;;;;;;;5032196;28;20525;-66
2022/01/24 01:02:36;;;;;;;11.05;5.18;;;;;;;;;;5032445;28;20085;-67
2022/01/24 01:05:23;;;;;;;10.27;5.43;;;;;;;;;;5029140;28;20108;-67
2022/01/24 01:08:12;;;;;;;9.82;4.68;;;;;;;;;;5044300;28;20032;-67
2022/01/24 01:18:52;;;;;;;9.18;4.97;;;;;;;;;;5032190;28;20060;-67
2022/01/24 01:21:18;;;;;;;8.77;4.75;;;;;;;;;;5032510;28;20100;-67
2022/01/24 01:23:52;;;;;;;9.23;5.20;;;;;;;;;;5032267;28;20029;-67
2022/01/24 01:28:53;;;;;;;8.73;4.90;;;;;;;;;;5032517;28;20366;-67
2022/01/24 01:31:37;;;;;;;11.45;5.82;;;;;;;;;;5034102;28;20461;-68
2022/01/24 01:34:23;;;;;;;14.77;5.30;;;;;;;;;;5032980;28;20032;-67
2022/01/24 01:37:18;;;;;;;12.23;5.38;;;;;;;;;;5031907;28;20104;-67
2022/01/24 01:52:24;;;;;;;10.82;5.10;;;;;;;;;;5032159;28;20036;-67
2022/01/24 01:55:42;;;;;;;9.13;5.30;;;;;;;;;;5032964;28;20467;-67
2022/01/24 01:58:09;;;;;;;10.90;4.93;;;;;;;;;;5032707;28;20484;-67
2022/01/24 02:00:36;;;;;;;7.82;4.15;;;;;;;;;;5031923;28;20021;-67
2022/01/24 02:03:02;;;;;;;8.90;4.65;;;;;;;;;;5031363;28;20388;-67
2022/01/24 02:05:28;;;;;;;9.90;5.00;;;;;;;;;;5029969;28;20037;-67
2022/01/24 02:07:54;;;;;;;9.77;4.57;;;;;;;;;;5030347;28;20033;-67
2022/01/24 02:10:22;;;;;;;8.75;4.82;;;;;;;;;;5032936;28;20021;-67
2022/01/24 02:12:49;;;;;;;8.55;4.50;;;;;;;;;;5031453;28;20037;-67
2022/01/24 02:15:22;;;;;;;9.90;4.85;;;;;;;;;;5031198;28;20033;-67
2022/01/24 02:18:02;;;;;;;8.23;4.60;;;;;;;;;;5031410;28;20040;-67
2022/01/24 02:23:38;;;;;;;10.77;4.72;;;;;;;;;;5020741;28;20040;-67
2022/01/24 02:26:06;;;;;;;12.27;4.35;;;;;;;;;;5027342;28;20030;-67
2022/01/24 02:28:47;;;;;;;;;;;;;;;;;;5034927;28;20029;-67
2022/01/24 02:33:58;;;;;;;8.25;3.67;;;;;;;;;;5030977;28;20040;-67
2022/01/24 02:36:24;;;;;;;7.70;3.60;;;;;;;;;;5031029;28;20501;-67
2022/01/24 02:49:31;;;;;;;3.42;2.05;;;;;;;;;;5034235;28;20499;-67
2022/01/24 02:52:08;;;;;;;9.23;3.97;;;;;;;;;;5031160;28;20048;-68
2022/01/24 02:54:35;;;;;;;8.57;3.95;;;;;;;;;;5030385;28;20062;-67
2022/01/24 02:57:02;;;;;;;9.13;3.80;;;;;;;;;;5030706;28;20013;-67
2022/01/24 02:59:28;;;;;;;9.70;4.45;;;;;;;;;;5029544;28;20036;-67
2022/01/24 03:01:54;;;;;;;8.77;3.95;;;;;;;;;;5029797;28;20032;-67
2022/01/24 03:04:20;;;;;;;8.45;4.20;;;;;;;;;;5036091;28;20068;-67
2022/01/24 03:06:47;;;;;;;7.05;3.50;;;;;;;;;;5034589;28;20392;-67
2022/01/24 03:09:13;;;;;;;8.75;3.75;;;;;;;;;;5034754;28;20022;-67
2022/01/24 03:14:15;;;;;;;8.45;4.22;;;;;;;;;;4992510;28;20427;-83
2022/01/24 03:16:41;;;;;;;8.82;4.10;;;;;;;;;;4994224;28;20671;-83
2022/01/24 03:19:07;;;;;;;7.57;3.42;;;;;;;;;;5017360;28;20037;-83
2022/01/24 03:21:33;;;;;;;6.30;3.55;;;;;;;;;;4994085;28;20113;-84
2022/01/24 03:23:59;;;;;;;7.13;3.50;;;;;;;;;;4992939;28;20215;-83
2022/01/24 03:26:26;;;;;;;6.45;3.30;;;;;;;;;;4992169;28;20043;-83
2022/01/24 03:28:52;;;;;;;6.53;3.28;;;;;;;;;;4994694;28;20082;-82
2022/01/24 03:31:19;;;;;;;7.38;3.60;;;;;;;;;;5012298;28;20470;-82
2022/01/24 03:33:45;;;;;;;8.18;3.65;;;;;;;;;;4990749;28;20141;-83
2022/01/24 03:36:11;;;;;;;6.88;3.53;;;;;;;;;;4992435;28;20054;-83
2022/01/24 03:38:37;;;;;;;7.20;3.40;;;;;;;;;;4993049;28;20038;-83
2022/01/24 03:41:03;;;;;;;6.93;3.10;;;;;;;;;;4990377;28;20037;-83
2022/01/24 03:43:29;;;;;;;8.98;3.20;;;;;;;;;;4994979;28;20038;-83
2022/01/24 03:48:46;;;;;;;5.78;3.03;;;;;;;;;;4987738;28;20085;-83
2022/01/24 03:51:12;;;;;;;9.00;3.83;;;;;;;;;;4995934;28;20486;-83
2022/01/24 03:53:39;;;;;;;7.57;3.42;;;;;;;;;;4992954;28;20441;-83
2022/01/24 03:56:06;;;;;;;7.75;3.97;;;;;;;;;;4992183;28;20105;-83
2022/01/24 03:58:32;;;;;;;6.57;2.97;;;;;;;;;;4994434;28;20479;-83
2022/01/24 04:00:58;;;;;;;6.38;2.65;;;;;;;;;;4984600;28;20069;-83
2022/01/24 04:03:25;;;;;;;7.32;3.30;;;;;;;;;;4985077;28;20058;-82
2022/01/24 04:05:51;;;;;;;8.40;3.85;;;;;;;;;;4989807;28;20042;-82
2022/01/24 04:08:17;;;;;;;8.10;3.58;;;;;;;;;;4993858;28;20109;-83
2022/01/24 04:10:47;;;;;;;6.53;2.95;;;;;;;;;;4998661;28;20121;-82
2022/01/24 04:13:34;;;;;;;7.05;3.55;;;;;;;;;;4992537;28;20031;-84
2022/01/24 04:16:23;;;;;;;8.93;3.35;;;;;;;;;;4993836;28;20395;-82
2022/01/24 04:18:55;;;;;;;7.95;3.35;;;;;;;;;;4990583;28;20062;-83
2022/01/24 04:24:03;;;;;;;6.57;3.08;;;;;;;;;;4990381;28;20027;-84
2022/01/24 04:26:29;;;;;;;6.28;3.03;;;;;;;;;;4986620;28;20476;-83
2022/01/24 04:28:56;;;;;;;8.30;3.13;;;;;;;;;;5021338;28;20382;-83
2022/01/24 04:31:22;;;;;;;12.93;4.55;;;;;;;;;;5013818;28;20526;-83
2022/01/24 04:33:49;;;;;;;10.23;3.80;;;;;;;;;;4985072;28;20114;-83
2022/01/24 04:36:16;;;;;;;8.10;3.58;;;;;;;;;;4987944;28;20026;-82
2022/01/24 04:38:42;;;;;;;6.13;3.13;;;;;;;;;;4985320;28;20384;-83
2022/01/24 04:41:17;;;;;;;5.93;2.88;;;;;;;;;;4986751;28;20053;-83
2022/01/24 04:43:53;;;;;;;5.88;3.10;;;;;;;;;;4987357;28;20023;-83
2022/01/24 04:54:38;;;;;;;5.75;3.03;;;;;;;;;;4990259;28;20094;-82
2022/01/24 04:57:02;;;;;;;4.45;2.40;;;;;;;;;;4989520;28;20027;-83
2022/01/24 04:59:28;;;;;;;7.38;3.15;;;;;;;;;;4990180;28;20033;-84
2022/01/24 05:01:54;;;;;;;6.25;2.95;;;;;;;;;;4978407;28;20038;-84
2022/01/24 05:04:20;;;;;;;5.90;3.05;;;;;;;;;;5012556;28;20034;-84
2022/01/24 05:06:46;;;;;;;7.45;3.78;;;;;;;;;;4989825;28;20065;-84
2022/01/24 05:09:12;;;;;;;5.85;2.72;;;;;;;;;;4988148;28;20045;-84
2022/01/24 05:11:55;;;;;;;7.07;3.28;;;;;;;;;;4989545;28;20169;-83
2022/01/24 05:25:20;;;;;;;7.05;3.20;;;;;;;;;;4991406;28;20036;-83
2022/01/24 05:27:46;;;;;;;7.35;2.75;;;;;;;;;;4986657;28;20097;-84
2022/01/24 05:30:13;;;;;;;6.25;3.22;;;;;;;;;;4988381;28;20030;-83
2022/01/24 05:32:39;;;;;;;5.75;3.22;;;;;;;;;;4987847;28;20030;-84
2022/01/24 05:35:05;;;;;;;6.22;3.00;;;;;;;;;;5004729;28;20030;-83
2022/01/24 05:37:31;;;;;;;7.43;3.40;;;;;;;;;;4991970;28;20026;-84
2022/01/24 05:39:57;;;;;;;7.05;3.15;;;;;;;;;;4988863;28;20124;-84
2022/01/24 05:42:23;;;;;;;5.68;3.00;;;;;;;;;;4987662;28;20077;-83
2022/01/24 05:44:49;;;;;;;7.07;2.53;;;;;;;;;;4987908;28;20045;-84
2022/01/24 05:47:15;;;;;;;5.55;2.88;;;;;;;;;;4987650;28;20042;-83
2022/01/24 05:49:41;;;;;;;6.30;2.95;;;;;;;;;;4990345;28;20026;-84
2022/01/24 05:52:09;;;;;;;4.20;2.40;;;;;;;;;;5009364;28;20034;-84
2022/01/24 05:54:39;;;;;;;6.00;2.85;;;;;;;;;;4989309;28;20025;-83
2022/01/24 05:57:05;;;;;;;4.13;2.22;;;;;;;;;;4988699;28;20105;-83
2022/01/24 05:59:31;;;;;;;5.82;2.38;;;;;;;;;;4988568;28;20444;-83
2022/01/24 06:01:57;;;;;;;5.53;2.50;;;;;;;;;;4990166;28;20088;-84
2022/01/24 06:04:23;;;;;;;5.88;2.70;;;;;;;;;;4990912;28;20022;-84
2022/01/24 06:06:49;;;;;;;4.50;2.38;;;;;;;;;;4988764;28;20560;-84
2022/01/24 06:09:15;;;;;;;4.97;2.55;;;;;;;;;;4988768;28;20034;-84
2022/01/24 06:11:42;;;;;;;4.30;2.25;;;;;;;;;;4986769;28;20054;-84
2022/01/24 06:14:08;;;;;;;4.43;2.30;;;;;;;;;;4990466;28;20023;-84
2022/01/24 06:16:34;;;;;;;7.20;3.28;;;;;;;;;;4991836;28;20034;-84
2022/01/24 06:19:00;;;;;;;4.80;1.83;;;;;;;;;;4987122;28;20030;-84
2022/01/24 06:21:26;;;;;;;5.28;2.30;;;;;;;;;;4987123;28;20494;-84
2022/01/24 06:23:52;;;;;;;4.55;2.17;;;;;;;;;;4988696;28;20038;-84
2022/01/24 06:26:18;;;;;;;10.73;4.38;;;;;;;;;;4988440;28;20057;-86
2022/01/24 06:28:44;;;;;;;6.53;2.55;;;;;;;;;;5005868;28;20088;-89
2022/01/24 06:31:10;;;;;;;5.55;2.63;;;;;;;;;;5011803;28;20023;-85
2022/01/24 06:33:36;;;;;;;10.48;5.68;;;;;;;;;;4987547;28;20041;-84
2022/01/24 06:36:02;;;;;;;6.75;3.83;;;;;;;;;;4987160;28;20030;-84
2022/01/24 06:38:29;;;;;;;7.47;3.47;;;;;;;;;;4986798;28;20411;-84
2022/01/24 06:40:55;;;;;;;9.20;4.35;;;;;;;;;;4988068;28;20026;-84
2022/01/24 06:43:21;;;;;;;9.18;4.18;;;;;;;;;;4992200;28;20031;-84
2022/01/24 06:45:47;;;;;;;7.28;3.45;;;;;;;;;;4987219;28;20099;-84
2022/01/24 06:48:14;;;;;;;5.78;3.10;;;;;;;;;;4987159;28;20072;-85
2022/01/24 06:50:40;;;;;;;11.07;3.80;;;;;;;;;;4986508;28;20058;-84
2022/01/24 06:53:06;;;;;;;10.30;3.60;;;;;;;;;;4987700;28;20133;-84
2022/01/24 06:55:32;;;;;;;8.13;3.50;;;;;;;;;;5010867;28;20419;-84
2022/01/24 06:57:58;;;;;;;7.55;3.38;;;;;;;;;;4988483;28;20036;-84
2022/01/24 07:00:29;;;;;;;9.10;3.67;;;;;;;;;;4986321;28;20073;-85
2022/01/24 07:02:56;;;;;;;7.65;3.63;;;;;;;;;;4988377;28;20023;-84
2022/01/24 07:05:23;;;;;;;5.78;2.58;;;;;;;;;;4986411;28;20380;-84
2022/01/24 07:07:49;;;;;;;4.32;2.60;;;;;;;;;;4988907;28;20042;-84
2022/01/24 07:10:15;;;;;;;4.38;2.55;;;;;;;;;;5008648;28;20121;-84
2022/01/24 07:12:41;;;;;;;7.10;3.08;;;;;;;;;;4986703;28;20454;-85
2022/01/24 07:15:11;;;;;;;6.65;2.97;;;;;;;;;;4987791;28;20068;-84
2022/01/24 07:20:22;;;;;;;5.30;2.65;;;;;;;;;;4975476;28;20042;-84
2022/01/24 07:22:48;;;;;;;7.95;3.03;;;;;;;;;;4988897;28;20026;-84
2022/01/24 07:25:14;;;;;;;8.00;3.17;;;;;;;;;;5008515;28;20061;-85
2022/01/24 07:27:40;;;;;;;4.63;2.58;;;;;;;;;;4989764;28;20084;-84
2022/01/24 07:30:06;;;;;;;7.75;2.70;;;;;;;;;;4987677;28;20072;-84
2022/01/24 07:32:32;;;;;;;4.05;2.28;;;;;;;;;;4986157;28;20038;-84
2022/01/24 07:34:59;;;;;;;5.25;2.58;;;;;;;;;;4989309;28;20117;-84
2022/01/24 07:37:25;;;;;;;5.10;2.63;;;;;;;;;;4990374;28;20030;-84
2022/01/24 07:39:52;;;;;;;5.65;2.10;;;;;;;;;;4987712;28;20363;-84
2022/01/24 07:42:29;;;;;;;5.55;2.67;;;;;;;;;;4986636;28;20509;-84
2022/01/24 07:44:55;;;;;;;5.35;2.50;;;;;;;;;;4987940;28;20029;-83
2022/01/24 07:47:21;;;;;;;5.78;2.95;;;;;;;;;;4988360;28;20034;-84
2022/01/24 07:49:47;;;;;;;7.30;2.90;;;;;;;;;;4991207;28;20034;-84
2022/01/24 07:52:13;;;;;;;3.60;2.15;;;;;;;;;;5012106;28;20039;-83
2022/01/24 07:54:39;;;;;;;4.43;2.35;;;;;;;;;;4989673;28;20023;-84
2022/01/24 07:57:05;;;;;;;5.93;1.85;;;;;;;;;;4989704;28;20034;-83
2022/01/24 07:59:31;;;;;;;4.18;1.98;;;;;;;;;;4991180;28;20026;-83
2022/01/24 08:01:57;;;;;;;5.97;2.60;;;;;;;;;;4992630;28;20045;-84
2022/01/24 08:04:23;;;;;;;6.63;3.17;;;;;;;;;;5012361;28;20038;-84
2022/01/24 08:06:49;;;;;;;7.05;2.55;;;;;;;;;;4990868;28;20044;-85
2022/01/24 08:09:16;;;;;;;5.95;2.47;;;;;;;;;;4990726;28;20049;-84
2022/01/24 08:11:43;;;;;;;5.75;2.33;;;;;;;;;;4990735;28;20038;-85
2022/01/24 08:14:09;;;;;;;4.55;2.50;;;;;;;;;;4991718;28;20031;-84
2022/01/24 08:16:37;;;;;;;6.00;3.10;;;;;;;;;;4994430;28;20022;-84
2022/01/24 08:19:03;;;;;;;6.32;3.20;;;;;;;;;;4989276;28;20088;-85
2022/01/24 08:21:29;;;;;;;7.30;3.33;;;;;;;;;;4990583;28;20027;-85
2022/01/24 08:23:56;;;;;;;5.05;2.50;;;;;;;;;;4989102;28;20065;-85
2022/01/24 08:26:23;;;;;;;3.08;1.92;;;;;;;;;;4990466;28;20456;-85
2022/01/24 08:28:49;;;;;;;4.70;2.17;;;;;;;;;;4991246;28;20034;-85
2022/01/24 08:31:15;;;;;;;4.97;2.22;;;;;;;;;;4991747;28;20026;-85
2022/01/24 08:33:41;;;;;;;3.20;1.85;;;;;;;;;;4990524;28;20023;-86
2022/01/24 08:36:07;;;;;;;5.55;2.40;;;;;;;;;;4989908;28;20172;-85
2022/01/24 08:38:36;;;;;;;5.38;2.63;;;;;;;;;;4989134;28;20034;-84
2022/01/24 08:41:09;;;;;;;3.90;2.15;;;;;;;;;;4989879;28;20027;-85
2022/01/24 08:43:51;;;;;;;6.10;2.05;;;;;;;;;;4993857;28;20030;-85
2022/01/24 08:46:18;;;;;;;4.13;2.42;;;;;;;;;;4991909;28;20465;-85
2022/01/24 08:48:46;;;;;;;5.43;2.72;;;;;;;;;;4988536;28;20041;-85
2022/01/24 08:51:12;;;;;;;4.63;2.00;;;;;;;;;;4988682;28;20407;-85
2022/01/24 08:53:38;;;;;;;4.00;2.38;;;;;;;;;;4988769;28;20057;-84
2022/01/24 08:56:06;;;;;;;4.90;2.70;;;;;;;;;;4989131;28;20041;-84
2022/01/24 08:58:33;;;;;;;4.78;2.60;;;;;;;;;;5012449;28;20069;-84
2022/01/24 09:00:59;;;;;;;5.05;2.60;;;;;;;;;;4987877;28;20418;-84
2022/01/24 09:03:29;;;;;;;5.75;2.67;;;;;;;;;;4991432;28;20022;-84
2022/01/24 09:05:57;;;;;;;3.40;2.10;;;;;;;;;;4988477;28;20035;-85
2022/01/24 09:08:23;;;;;;;5.70;3.63;;;;;;;;;;4989777;28;20046;-84
2022/01/24 09:10:50;;;;;;;7.68;3.65;;;;;;;;;;4991407;28;20018;-84
2022/01/24 09:13:18;;;;;;;4.50;2.25;;;;;;;;;;5010282;28;20188;-84
2022/01/24 09:15:44;;;;;;;3.30;2.20;;;;;;;;;;4988515;28;20360;-84
2022/01/24 09:18:10;;;;;;;3.95;2.20;;;;;;;;;;4989741;28;20093;-84
2022/01/24 09:20:38;;;;;;;4.30;2.28;;;;;;;;;;4987897;28;20038;-84
2022/01/24 09:23:04;;;;;;;3.05;1.85;;;;;;;;;;4990533;28;20439;-84
2022/01/24 09:25:31;;;;;;;5.20;1.90;;;;;;;;;;5010212;28;20407;-84
2022/01/24 09:27:56;;;;;;;3.80;1.67;;;;;;;;;;4991020;28;20503;-84
2022/01/24 09:30:24;;;;;;;2.75;1.38;;;;;;;;;;4988874;28;20062;-84
2022/01/24 09:32:50;;;;;;;3.00;1.60;;;;;;;;;;4988908;28;20128;-84
2022/01/24 09:35:17;;;;;;;4.20;1.40;;;;;;;;;;4988274;28;20126;-83
2022/01/24 09:37:43;;;;;;;4.60;1.77;;;;;;;;;;4990367;28;20026;-84
2022/01/24 09:40:13;;;;;;;3.38;1.88;;;;;;;;;;5009017;28;20034;-84
2022/01/24 09:42:39;;;;;;;4.00;1.70;;;;;;;;;;4988007;28;20113;-84
2022/01/24 09:45:06;;;;;;;5.45;2.17;;;;;;;;;;4987775;28;20088;-84
2022/01/24 09:47:32;;;;;;;4.07;2.10;;;;;;;;;;4988899;28;20121;-84
2022/01/24 09:49:58;;;;;;;3.92;1.77;;;;;;;;;;4990208;28;20030;-84
2022/01/24 09:52:24;;;;;;;4.47;1.85;;;;;;;;;;5010405;28;20037;-83
2022/01/24 09:54:50;;;;;;;3.10;1.73;;;;;;;;;;4988962;28;20105;-84
2022/01/24 09:57:16;;;;;;;3.72;1.45;;;;;;;;;;4988689;28;20051;-84
2022/01/24 09:59:42;;;;;;;4.15;1.58;;;;;;;;;;4988820;28;20034;-84
2022/01/24 10:02:08;;;;;;;3.25;1.60;;;;;;;;;;4990648;28;20388;-84
2022/01/24 10:04:34;;;;;;;4.47;1.35;;;;;;;;;;4986487;28;20041;-84
2022/01/24 10:07:17;;;;;;;2.10;1.08;;;;;;;;;;4986976;28;20042;-84
2022/01/24 10:09:44;;;;;;;1.85;1.05;;;;;;;;;;4988291;28;20575;-84
2022/01/24 10:17:49;;;;;;;1.40;0.93;;;;;;;;;;4988932;28;20162;-85
2022/01/24 10:20:16;;;;;;;3.00;1.10;;;;;;;;;;4986997;28;20030;-85
2022/01/24 10:22:42;;;;;;;2.15;0.90;;;;;;;;;;4989428;28;20182;-85
2022/01/24 10:25:11;;;;;;;2.45;1.20;;;;;;;;;;4989147;28;20038;-85
2022/01/24 10:27:41;;;;;;;1.00;0.80;;;;;;;;;;4988736;28;20069;-85
2022/01/24 10:30:10;;;;;;;1.63;0.88;;;;;;;;;;4988679;28;20383;-85
2022/01/24 10:32:44;;;;;;;1.73;0.98;;;;;;;;;;4988884;28;20522;-85
2022/01/24 10:35:26;;;;;;;2.63;1.10;;;;;;;;;;4989334;28;20022;-84
2022/01/24 10:38:18;;;;;;;2.40;1.30;;;;;;;;;;4990561;28;20052;-84
2022/01/24 10:40:51;;;;;;;2.55;1.40;;;;;;;;;;5001096;28;20058;-84
2022/01/24 10:43:18;;;;;;;3.90;1.70;;;;;;;;;;5012363;28;20034;-84
2022/01/24 10:45:45;;;;;;;2.75;1.20;;;;;;;;;;4989659;28;20426;-84
2022/01/24 10:48:11;;;;;;;2.10;1.10;;;;;;;;;;4989623;28;20044;-84
2022/01/24 10:50:37;;;;;;;2.30;1.30;;;;;;;;;;4989832;28;20487;-85
2022/01/24 10:53:14;;;;;;;2.03;1.20;;;;;;;;;;4988679;28;20124;-86
2022/01/24 10:55:41;;;;;;;1.90;1.33;;;;;;;;;;4993569;28;20495;-84
2022/01/24 10:58:09;;;;;;;3.50;2.00;;;;;;;;;;4987200;28;20129;-84
2022/01/24 11:00:36;;;;;;;4.82;1.63;;;;;;;;;;4986953;28;20023;-85
2022/01/24 11:03:03;;;;;;;3.40;1.50;;;;;;;;;;4987806;28;20523;-84
2022/01/24 11:05:30;;;;;;;1.80;1.00;;;;;;;;;;4985864;28;20026;-84
2022/01/24 11:08:00;;;;;;;4.90;2.03;;;;;;;;;;4988581;28;20041;-85
2022/01/24 11:10:27;;;;;;;4.97;1.73;;;;;;;;;;5009534;28;20069;-84
2022/01/24 11:12:54;;;;;;;0.98;0.70;;;;;;;;;;4984546;28;20495;-84
2022/01/24 11:15:21;;;;;;;1.73;0.70;;;;;;;;;;4985770;28;20037;-84
2022/01/24 11:17:47;;;;;;;1.13;0.50;;;;;;;;;;4984602;28;20088;-84
2022/01/24 11:20:17;;;;;;;1.98;1.10;;;;;;;;;;4985372;28;20038;-84
2022/01/24 11:22:45;;;;;;;1.70;1.00;;;;;;;;;;4988566;28;20030;-83
2022/01/24 11:25:11;;;;;;;;;;;;;;;;;;4991711;28;20022;-84
2022/01/24 11:27:38;;;;;;;2.53;1.00;;;;;;;;;;5009285;28;20335;-84
2022/01/24 11:30:12;;;;;;;2.13;0.93;;;;;;;;;;4989643;28;20049;-84
2022/01/24 11:32:49;;;;;;;1.58;1.00;;;;;;;;;;5002617;28;20038;-84
2022/01/24 11:35:29;;;;;;;1.17;0.80;;;;;;;;;;4989922;28;20033;-84
2022/01/24 11:37:56;;;;;;;1.88;1.00;;;;;;;;;;4990415;28;20066;-84
2022/01/24 11:40:23;;;;;;;2.88;1.23;;;;;;;;;;4991854;28;20019;-84
2022/01/24 11:42:50;;;;;;;2.33;1.27;;;;;;;;;;4990704;28;20038;-84
2022/01/24 11:45:18;;;;;;;3.65;1.50;;;;;;;;;;4988593;28;20026;-84
2022/01/24 11:47:45;;;;;;;3.33;1.20;;;;;;;;;;4989537;28;20133;-84
2022/01/24 11:50:31;;;;;;;3.05;1.30;;;;;;;;;;4988497;28;20459;-84
2022/01/24 11:52:58;;;;;;;3.90;1.17;;;;;;;;;;4991346;28;20018;-84
2022/01/24 11:55:33;;;;;;;2.03;1.05;;;;;;;;;;5011028;28;20034;-84
2022/01/24 11:58:00;;;;;;;2.35;1.23;;;;;;;;;;4987265;28;20057;-84
2022/01/24 12:00:27;;;;;;;4.00;1.90;;;;;;;;;;4989730;28;20035;-84
2022/01/24 12:02:57;;;;;;;7.10;2.60;;;;;;;;;;4988404;28;20137;-84
2022/01/24 12:05:44;;;;;;;5.95;3.20;;;;;;;;;;4988940;28;20073;-84
2022/01/24 12:08:11;;;;;;;7.88;3.30;;;;;;;;;;4974268;28;20165;-84
2022/01/24 12:10:40;;;;;;;6.30;3.13;;;;;;;;;;4997362;28;20018;-84
2022/01/24 12:13:25;;;;;;;6.93;3.05;;;;;;;;;;5004587;28;20362;-84
2022/01/24 12:15:51;;;;;;;6.85;3.10;;;;;;;;;;4987821;28;20379;-84
2022/01/24 12:18:21;;;;;;;8.05;3.80;;;;;;;;;;4988999;28;20026;-84
2022/01/24 12:20:47;;;;;;;7.10;3.38;;;;;;;;;;4988945;28;20053;-84
2022/01/24 12:23:16;;;;;;;6.97;3.13;;;;;;;;;;4990861;28;20026;-84
2022/01/24 12:25:48;;;;;;;11.52;3.50;;;;;;;;;;4991266;28;20409;-84
2022/01/24 12:28:24;;;;;;;9.02;3.70;;;;;;;;;;5010537;28;20030;-84
2022/01/24 12:31:02;;;;;;;7.30;3.53;;;;;;;;;;4989154;28;20110;-84
2022/01/24 12:33:28;;;;;;;;;;;;;;;;;;4989183;28;20088;-84
2022/01/24 12:35:54;;;;;;;8.38;3.63;;;;;;;;;;5007132;28;19913;-84
2022/01/24 12:38:20;;;;;;;8.40;4.03;;;;;;;;;;4989998;28;20101;-85
2022/01/24 12:40:47;;;;;;;8.35;3.95;;;;;;;;;;4992231;28;20027;-84
2022/01/24 12:43:29;;;;;;;7.88;3.95;;;;;;;;;;5010395;28;20034;-84
2022/01/24 12:48:39;;;;;;;7.55;3.50;;;;;;;;;;4989136;28;20056;-85
2022/01/24 12:51:07;;;;;;;8.27;3.75;;;;;;;;;;4989985;28;20022;-85
2022/01/24 12:53:38;;;;;;;11.63;4.25;;;;;;;;;;4991523;28;20042;-85
2022/01/24 12:56:06;;;;;;;11.05;4.30;;;;;;;;;;4990821;28;20031;-85
2022/01/24 12:58:33;;;;;;;8.82;3.95;;;;;;;;;;5012327;28;20034;-84
2022/01/24 13:00:59;;;;;;;10.23;4.30;;;;;;;;;;4988018;28;20037;-85
2022/01/24 13:03:25;;;;;;;9.00;4.22;;;;;;;;;;4988228;28;20081;-84
2022/01/24 13:05:51;;;;;;;13.13;4.82;;;;;;;;;;4989865;28;20026;-84
2022/01/24 13:08:17;;;;;;;10.20;4.22;;;;;;;;;;4989642;28;20487;-85
2022/01/24 13:10:48;;;;;;;10.65;4.50;;;;;;;;;;4991981;28;20019;-85
2022/01/24 13:13:15;;;;;;;10.38;4.60;;;;;;;;;;5010367;28;20125;-85
2022/01/24 13:21:17;;;;;;;9.60;4.78;;;;;;;;;;4989340;28;20041;-85
2022/01/24 13:23:48;;;;;;;9.98;4.53;;;;;;;;;;4987640;28;20117;-84
2022/01/24 13:26:14;;;;;;;9.90;4.65;;;;;;;;;;4989635;28;20022;-84
2022/01/24 13:28:40;;;;;;;10.63;4.28;;;;;;;;;;4992431;28;20088;-85
2022/01/24 13:31:07;;;;;;;9.05;4.60;;;;;;;;;;4989506;28;20025;-84
2022/01/24 13:33:34;;;;;;;10.98;5.32;;;;;;;;;;4987476;28;20067;-84
2022/01/24 13:36:08;;;;;;;12.07;5.07;;;;;;;;;;4988061;28;20120;-85
2022/01/24 13:38:42;;;;;;;18.13;7.07;;;;;;;;;;4987984;28;20383;-84
2022/01/24 13:41:11;;;;;;;12.50;5.65;;;;;;;;;;4973796;28;20058;-84
2022/01/24 13:43:39;;;;;;;12.85;5.70;;;;;;;;;;5003762;28;20144;-84
2022/01/24 13:46:07;;;;;;;10.55;5.60;;;;;;;;;;5009999;28;20034;-84
2022/01/24 13:48:42;;;;;;;11.73;5.03;;;;;;;;;;4987834;28;20062;-85
2022/01/24 13:51:08;;;;;;;11.13;5.90;;;;;;;;;;4990749;28;20023;-85
2022/01/24 13:53:34;;;;;;;9.48;4.57;;;;;;;;;;4988482;28;20037;-84
2022/01/24 13:56:01;;;;;;;13.63;5.75;;;;;;;;;;4989877;28;20022;-85
2022/01/24 13:58:27;;;;;;;13.15;6.30;;;;;;;;;;4991506;28;20023;-84
2022/01/24 14:00:58;;;;;;;14.10;6.75;;;;;;;;;;4987194;28;20026;-84
2022/01/24 14:03:24;;;;;;;32.30;21.88;;;;;;;;;;4988769;28;20054;-85
2022/01/24 14:06:10;;;;;;;16.42;6.25;;;;;;;;;;4986754;28;20031;-85
2022/01/24 14:08:36;;;;;;;16.25;7.28;;;;;;;;;;4988145;28;20038;-85
2022/01/24 14:11:13;;;;;;;15.32;7.72;;;;;;;;;;4997783;28;20156;-85
2022/01/24 14:13:40;;;;;;;16.90;8.20;;;;;;;;;;4976109;28;20039;-85
2022/01/24 14:16:21;;;;;;;14.65;7.88;;;;;;;;;;4989416;28;20502;-84
2022/01/24 14:18:59;;;;;;;15.65;7.20;;;;;;;;;;4988107;28;20026;-84
2022/01/24 14:21:25;;;;;;;;;;;;;;;;;;4988673;28;20042;-84
2022/01/24 14:23:51;;;;;;;12.80;6.60;;;;;;;;;;5005850;28;19910;-85
2022/01/24 14:26:19;;;;;;;13.90;7.10;;;;;;;;;;4990583;28;20410;-87
2022/01/24 14:28:45;;;;;;;9.02;4.50;;;;;;;;;;4989796;28;20124;-84
2022/01/24 14:31:13;;;;;;;10.45;5.72;;;;;;;;;;5008358;28;20035;-84
2022/01/24 14:33:40;;;;;;;14.38;7.32;;;;;;;;;;4986884;28;20045;-85
2022/01/24 14:36:11;;;;;;;16.08;8.85;;;;;;;;;;4986791;28;20026;-85
2022/01/24 14:38:37;;;;;;;39.10;34.08;;;;;;;;;;4988528;28;20022;-84
2022/01/24 14:41:08;;;;;;;18.25;10.07;;;;;;;;;;4988371;28;20034;-84
2022/01/24 14:46:22;;;;;;;11.90;6.05;;;;;;;;;;4989879;28;20041;-86
2022/01/24 14:48:49;;;;;;;13.60;6.68;;;;;;;;;;4986406;28;20034;-84
2022/01/24 14:51:17;;;;;;;19.27;8.75;;;;;;;;;;4986343;28;20022;-85
2022/01/24 14:53:44;;;;;;;19.70;9.57;;;;;;;;;;4986786;28;20034;-85
2022/01/24 14:56:12;;;;;;;20.60;10.73;;;;;;;;;;4987619;28;20097;-84
2022/01/24 14:58:38;;;;;;;11.23;5.22;;;;;;;;;;4990221;28;20050;-84
2022/01/24 15:01:04;;;;;;;11.88;5.60;;;;;;;;;;4988777;28;20463;-84
2022/01/24 15:03:30;;;;;;;28.10;13.93;;;;;;;;;;4987661;28;20022;-84
2022/01/24 15:05:58;;;;;;;20.15;9.32;;;;;;;;;;4987824;28;20035;-84
2022/01/24 15:08:24;;;;;;;17.52;8.40;;;;;;;;;;4986267;28;20034;-84
2022/01/24 15:10:50;;;;;;;19.60;9.38;;;;;;;;;;4996070;28;20089;-83
2022/01/24 15:13:19;;;;;;;21.55;9.82;;;;;;;;;;5008122;28;20049;-83
2022/01/24 15:15:54;;;;;;;12.52;6.10;;;;;;;;;;4986172;28;20042;-84
2022/01/24 15:24:11;;;;;;;10.90;4.88;;;;;;;;;;4988002;28;20073;-83
2022/01/24 15:26:37;;;;;;;10.90;5.65;;;;;;;;;;4986602;28;20058;-84
2022/01/24 15:29:03;;;;;;;13.20;6.88;;;;;;;;;;4986584;28;20460;-83
2022/01/24 15:31:29;;;;;;;13.48;6.35;;;;;;;;;;5009613;28;20023;-84
2022/01/24 15:33:54;;;;;;;13.82;6.97;;;;;;;;;;4987438;28;20057;-84
2022/01/24 15:36:20;;;;;;;13.82;5.97;;;;;;;;;;4988016;28;20463;-84
2022/01/24 15:38:46;;;;;;;12.93;6.25;;;;;;;;;;4985138;28;20030;-84
2022/01/24 15:41:12;;;;;;;13.90;7.53;;;;;;;;;;4988126;28;20042;-84
2022/01/24 15:44:06;;;;;;;14.68;8.57;;;;;;;;;;4988007;28;20069;-84
2022/01/24 15:49:06;;;;;;;17.77;8.60;;;;;;;;;;4987073;28;20046;-84
2022/01/24 15:51:32;;;;;;;13.07;7.13;;;;;;;;;;4985806;28;20034;-84
2022/01/24 15:53:58;;;;;;;18.73;9.00;;;;;;;;;;4983794;28;20038;-84
2022/01/24 15:58:50;;;;;;;29.52;13.98;;;;;;;;;;4987141;28;20109;-83
2022/01/24 16:01:16;;;;;;;22.08;12.95;;;;;;;;;;4987082;28;20027;-83
2022/01/24 16:03:42;;;;;;;19.52;11.20;;;;;;;;;;4986433;28;20506;-85
2022/01/24 16:06:08;;;;;;;12.75;6.32;;;;;;;;;;4989313;28;20069;-85
2022/01/24 16:08:34;;;;;;;15.13;7.32;;;;;;;;;;4986656;28;20035;-85
2022/01/24 16:11:00;;;;;;;18.33;9.82;;;;;;;;;;4983908;28;20050;-85
2022/01/24 16:13:28;;;;;;;18.45;9.70;;;;;;;;;;5012211;28;20042;-85
2022/01/24 16:15:55;;;;;;;18.52;11.32;;;;;;;;;;4987542;28;20426;-85
2022/01/24 16:18:21;;;;;;;18.63;9.00;;;;;;;;;;4985458;28;20085;-84
2022/01/24 16:23:27;;;;;;;13.00;6.40;;;;;;;;;;4988444;28;20079;-85
2022/01/24 16:25:54;;;;;;;16.30;9.45;;;;;;;;;;4989698;28;20085;-85
2022/01/24 16:28:28;;;;;;;16.95;9.85;;;;;;;;;;4990002;28;20074;-85
2022/01/24 16:30:56;;;;;;;17.33;10.13;;;;;;;;;;4985063;28;20026;-87
2022/01/24 16:33:22;;;;;;;16.47;9.33;;;;;;;;;;4991965;28;20383;-84
2022/01/24 16:35:49;;;;;;;19.42;8.70;;;;;;;;;;4988557;28;20069;-84
2022/01/24 16:38:16;;;;;;;21.75;9.80;;;;;;;;;;4990834;28;20018;-85
2022/01/24 16:40:52;;;;;;;21.10;11.63;;;;;;;;;;4989734;28;20026;-86
2022/01/24 16:48:33;;;;;;;23.42;11.45;;;;;;;;;;4987720;28;20118;-85
2022/01/24 16:51:01;;;;;;;18.37;8.73;;;;;;;;;;4988608;28;20031;-84
2022/01/24 16:53:27;;;;;;;19.23;10.07;;;;;;;;;;4988788;28;20364;-85